Time;durP1;ratioP1;P1;durP2;ratioP2;P2;SDS_P1;SDS_P2;PMS_P1;PMS_P2;Temp;Humidity;BMP_temperature;BMP_pressure;BME280_temperature;BME280_humidity;BME280_pressure;Samples;Min_cycle;Max_cycle;Signal;HPM_P1;HPM_P2
2021/12/01 00:00:47;;;;;;;8.88;1.80;;;;;;;12.56;77.78;100042.41;5054229;28;20043;-78
2021/12/01 00:03:12;;;;;;;14.05;1.55;;;;;;;12.66;77.25;100034.50;5050343;28;20070;-77
2021/12/01 00:05:38;;;;;;;10.60;1.73;;;;;;;12.67;77.30;100023.16;5041592;28;20040;-77
2021/12/01 00:08:04;;;;;;;13.50;1.90;;;;;;;12.65;77.61;100017.06;5042858;28;20063;-79
2021/12/01 00:10:34;;;;;;;7.30;1.58;;;;;;;12.62;77.58;99998.81;5049083;28;20109;-78
2021/12/01 00:13:01;;;;;;;9.63;1.90;;;;;;;12.55;77.59;99998.00;5042767;28;20063;-79
2021/12/01 00:15:26;;;;;;;11.82;1.67;;;;;;;12.70;77.10;99984.78;5054970;28;20055;-79
2021/12/01 00:17:52;;;;;;;13.43;1.63;;;;;;;12.64;77.19;99976.97;5037053;28;20060;-77
2021/12/01 00:20:19;;;;;;;10.48;1.55;;;;;;;12.60;77.06;99980.50;5056506;28;20071;-78
2021/12/01 00:22:45;;;;;;;11.85;1.70;;;;;;;12.63;76.83;99975.25;5040290;28;20388;-78
2021/12/01 00:25:14;;;;;;;12.82;1.92;;;;;;;12.53;76.96;99953.56;5049107;28;20051;-77
2021/12/01 00:27:42;;;;;;;10.85;1.80;;;;;;;12.51;77.04;99946.59;5051963;28;20040;-78
2021/12/01 00:30:09;;;;;;;9.35;1.73;;;;;;;12.68;76.64;99949.94;5034175;28;20664;-78
2021/12/01 00:32:35;;;;;;;17.15;1.88;;;;;;;12.59;76.87;99937.81;5043906;28;20321;-77
2021/12/01 00:35:01;;;;;;;12.95;1.40;;;;;;;12.55;77.07;99943.97;5026331;28;20267;-78
2021/12/01 00:37:27;;;;;;;9.80;1.85;;;;;;;12.55;76.91;99930.03;5056686;28;20274;-77
2021/12/01 00:39:52;;;;;;;7.05;1.60;;;;;;;12.60;76.88;99923.84;5035432;28;20297;-77
2021/12/01 00:42:20;;;;;;;9.38;1.80;;;;;;;12.71;76.41;99917.66;5049388;28;21183;-77
2021/12/01 00:44:49;;;;;;;8.98;1.50;;;;;;;12.53;76.89;99914.34;5049356;28;20141;-78
2021/12/01 00:47:15;;;;;;;7.80;1.58;;;;;;;12.54;76.79;99903.00;5049854;28;20036;-78
2021/12/01 00:49:42;;;;;;;10.50;1.75;;;;;;;12.72;76.36;99894.09;5025544;28;20040;-79
2021/12/01 00:52:08;;;;;;;8.80;1.70;;;;;;;12.62;76.60;99900.31;5043668;28;22219;-77
2021/12/01 00:54:33;;;;;;;7.78;1.60;;;;;;;12.69;76.54;99908.94;5048834;28;20040;-78
2021/12/01 00:56:59;;;;;;;10.50;1.52;;;;;;;12.65;76.97;99874.13;5051932;28;20047;-79
2021/12/01 00:59:24;;;;;;;6.38;1.40;;;;;;;12.52;77.33;99898.66;5051688;28;20044;-78
2021/12/01 01:01:50;;;;;;;7.43;1.40;;;;;;;12.67;76.72;99874.97;5023107;28;20462;-72
2021/12/01 01:04:16;;;;;;;6.45;1.33;;;;;;;12.58;76.80;99883.78;5043623;28;20151;-77
2021/12/01 01:06:42;;;;;;;5.20;1.40;;;;;;;12.65;76.37;99879.34;5046067;28;20191;-78
2021/12/01 01:09:09;;;;;;;8.70;1.70;;;;;;;12.74;75.73;99867.94;5049185;28;20048;-76
2021/12/01 01:17:09;;;;;;;9.43;1.75;;;;;;;12.80;74.66;99836.47;5036161;28;20055;-77
2021/12/01 01:19:36;;;;;;;10.18;1.80;;;;;;;12.70;74.58;99847.91;5056684;28;20036;-77
2021/12/01 01:22:03;;;;;;;10.82;2.13;;;;;;;12.50;74.74;99811.56;5036027;28;20044;-78
2021/12/01 01:24:28;;;;;;;10.05;1.77;;;;;;;12.69;74.03;99830.47;5047392;28;20463;-79
2021/12/01 01:26:56;;;;;;;11.25;1.75;;;;;;;12.74;73.95;99820.88;5035857;28;20511;-78
2021/12/01 01:29:22;;;;;;;9.07;1.73;;;;;;;12.81;73.75;99814.66;5025411;28;20040;-77
2021/12/01 01:31:52;;;;;;;13.75;1.85;;;;;;;12.79;73.67;99803.34;5048842;28;20117;-72
2021/12/01 01:34:18;;;;;;;16.40;1.90;;;;;;;12.74;74.02;99787.72;5046570;28;20097;-78
2021/12/01 01:36:43;;;;;;;13.57;1.90;;;;;;;12.76;73.95;99779.84;5031899;28;20040;-78
2021/12/01 01:39:08;;;;;;;14.27;1.80;;;;;;;12.82;73.68;99782.38;5054121;28;20272;-78
2021/12/01 01:41:34;;;;;;;9.85;1.50;;;;;;;12.93;73.31;99770.88;5054074;28;20142;-78
2021/12/01 01:44:00;;;;;;;12.60;2.28;;;;;;;12.93;72.88;99770.88;5037423;28;20563;-78
2021/12/01 01:46:31;;;;;;;16.17;1.50;;;;;;;12.74;73.43;99745.88;5046239;28;20121;-79
2021/12/01 01:49:05;;;;;;;13.23;1.88;;;;;;;12.78;73.32;99746.69;5060134;28;20040;-78
2021/12/01 01:51:31;;;;;;;9.63;1.35;;;;;;;12.93;72.77;99733.38;5031277;28;20047;-75
2021/12/01 01:53:57;;;;;;;7.93;1.48;;;;;;;12.83;72.92;99730.06;5029349;28;20282;-78
2021/12/01 01:56:23;;;;;;;9.20;1.45;;;;;;;12.91;72.57;99730.81;5028656;28;20102;-78
2021/12/01 01:58:48;;;;;;;10.85;1.80;;;;;;;12.98;72.31;99719.38;5035162;28;20044;-78
2021/12/01 02:01:44;;;;;;;13.23;1.65;;;;;;;12.99;72.26;99720.25;5036213;28;20047;-76
2021/12/01 02:04:02;;;;;;;10.55;1.55;;;;;;;12.83;72.70;99696.06;5039647;28;20662;-78
2021/12/01 02:06:27;;;;;;;11.85;1.35;;;;;;;12.82;72.46;99694.31;5048298;28;20365;-78
2021/12/01 02:08:55;;;;;;;7.85;1.60;;;;;;;12.96;71.90;99691.50;5057177;28;20300;-79
2021/12/01 02:11:22;;;;;;;10.25;1.95;;;;;;;12.97;72.17;99682.78;5038500;28;20054;-77
2021/12/01 02:13:48;;;;;;;8.95;1.50;;;;;;;12.89;72.13;99679.41;5050662;28;20455;-76
2021/12/01 02:16:14;;;;;;;8.25;1.45;;;;;;;12.86;72.28;99679.47;5053409;28;20044;-78
2021/12/01 02:18:40;;;;;;;6.38;1.27;;;;;;;12.81;72.24;99666.44;5054390;28;20051;-78
2021/12/01 02:21:12;;;;;;;5.95;1.13;;;;;;;12.74;72.51;99666.56;5035354;28;20417;-77
2021/12/01 02:23:41;;;;;;;7.85;1.33;;;;;;;12.80;72.60;99651.66;5058947;28;20119;-78
2021/12/01 02:26:07;;;;;;;5.57;1.20;;;;;;;12.87;72.63;99640.19;5049917;28;20040;-78
2021/12/01 02:28:33;;;;;;;6.53;1.48;;;;;;;12.60;73.08;99625.78;5057765;28;20044;-79
2021/12/01 02:30:59;;;;;;;4.28;1.20;;;;;;;12.81;72.84;99642.88;5049257;28;20560;-77
2021/12/01 02:33:24;;;;;;;5.80;1.38;;;;;;;12.78;72.74;99636.84;5039090;28;20212;-77
2021/12/01 02:35:50;;;;;;;7.05;1.50;;;;;;;12.94;72.34;99633.97;5045045;28;20561;-77
2021/12/01 02:38:16;;;;;;;5.10;1.30;;;;;;;12.85;72.62;99623.66;5055247;28;20040;-78
2021/12/01 02:40:41;;;;;;;5.72;1.35;;;;;;;12.75;72.95;99615.97;5055028;28;20036;-79
2021/12/01 02:43:09;;;;;;;4.60;1.30;;;;;;;12.89;72.50;99617.50;5056142;28;20546;-77
2021/12/01 02:45:34;;;;;;;3.15;1.30;;;;;;;12.83;72.96;99593.19;5040067;28;20044;-78
2021/12/01 02:48:00;;;;;;;6.35;1.70;;;;;;;12.62;73.98;99589.16;5042524;28;20677;-77
2021/12/01 02:50:25;;;;;;;3.85;1.40;;;;;;;12.70;73.75;99589.91;5053283;28;20484;-77
2021/12/01 02:52:51;;;;;;;3.65;1.40;;;;;;;12.52;74.59;99579.72;5053509;28;20074;-78
2021/12/01 02:55:19;;;;;;;4.10;1.42;;;;;;;12.60;74.45;99572.63;5050807;28;20059;-79
2021/12/01 02:57:52;;;;;;;3.00;1.70;;;;;;;12.26;75.56;99568.81;5051775;28;20105;-78
2021/12/01 03:00:20;;;;;;;2.27;1.60;;;;;;;12.49;75.00;99567.56;5053403;28;20040;-77
2021/12/01 03:02:46;;;;;;;4.90;1.88;;;;;;;12.38;75.56;99548.56;5054629;28;20300;-77
2021/12/01 03:05:12;;;;;;;3.33;2.10;;;;;;;12.32;75.94;99526.91;5047054;28;20036;-76
2021/12/01 03:07:38;;;;;;;3.17;2.38;;;;;;;12.36;75.58;99521.59;5036942;28;20052;-77
2021/12/01 03:10:07;;;;;;;4.75;3.00;;;;;;;12.29;75.89;99521.72;5045809;28;20374;-78
2021/12/01 03:12:35;;;;;;;3.80;2.95;;;;;;;12.37;75.53;99517.22;5053187;28;20717;-79
2021/12/01 03:15:02;;;;;;;5.47;3.60;;;;;;;12.28;75.92;99509.53;5051697;28;20074;-77
2021/12/01 03:17:29;;;;;;;4.10;3.30;;;;;;;12.11;76.31;99488.88;5052197;28;20407;-77
2021/12/01 03:19:55;;;;;;;5.53;3.63;;;;;;;12.19;75.72;99490.50;5047297;28;20055;-76
2021/12/01 03:22:21;;;;;;;4.57;3.47;;;;;;;12.11;76.26;99471.47;5034774;28;20087;-77
2021/12/01 03:24:46;;;;;;;5.47;3.35;;;;;;;12.15;75.76;99483.59;5031353;28;20039;-78
2021/12/01 03:27:12;;;;;;;5.10;3.70;;;;;;;12.03;76.28;99457.63;5057476;28;20037;-76
2021/12/01 03:29:37;;;;;;;5.70;3.55;;;;;;;12.06;76.30;99457.63;5032459;28;20538;-78
2021/12/01 03:32:03;;;;;;;7.65;3.80;;;;;;;12.00;76.35;99456.84;5025354;28;21002;-77
2021/12/01 03:34:29;;;;;;;6.78;3.72;;;;;;;12.02;76.20;99448.06;5036455;28;20036;-77
2021/12/01 03:36:55;;;;;;;6.30;3.92;;;;;;;12.04;76.16;99438.47;5051093;28;20032;-78
2021/12/01 03:39:20;;;;;;;5.85;4.18;;;;;;;11.93;76.26;99437.78;5037030;28;20112;-76
2021/12/01 03:41:46;;;;;;;7.55;4.10;;;;;;;11.84;76.53;99430.06;5046252;28;20059;-77
2021/12/01 03:44:11;;;;;;;5.05;3.60;;;;;;;11.63;76.98;99430.34;5037013;28;20500;-77
2021/12/01 03:46:37;;;;;;;7.85;3.72;;;;;;;11.64;77.22;99419.03;5052355;28;20473;-79
2021/12/01 03:49:02;;;;;;;4.53;3.50;;;;;;;11.79;76.80;99413.63;5043731;28;20044;-79
2021/12/01 03:51:28;;;;;;;6.18;3.55;;;;;;;11.57;77.03;99410.44;5053171;28;20457;-77
2021/12/01 03:53:53;;;;;;;5.68;3.33;;;;;;;11.55;77.15;99403.50;5044978;28;20354;-80
2021/12/01 03:56:20;;;;;;;4.93;3.60;;;;;;;11.39;77.85;99390.66;5048052;28;20622;-77
2021/12/01 03:58:46;;;;;;;5.40;3.97;;;;;;;11.63;77.29;99397.28;5051298;28;20101;-77
2021/12/01 04:01:12;;;;;;;5.60;3.90;;;;;;;11.55;77.02;99383.47;5051392;28;20482;-77
2021/12/01 04:03:37;;;;;;;5.75;4.20;;;;;;;11.49;77.39;99380.09;5051023;28;20044;-78
2021/12/01 04:06:03;;;;;;;5.15;4.20;;;;;;;11.41;77.47;99335.81;5025087;28;20732;-79
2021/12/01 04:08:28;;;;;;;7.72;4.20;;;;;;;11.42;77.77;99361.03;5056118;28;20047;-79
2021/12/01 04:10:53;;;;;;;5.07;4.18;;;;;;;11.32;77.55;99349.03;5051269;28;20495;-77
2021/12/01 04:13:19;;;;;;;5.72;4.28;;;;;;;11.33;77.89;99343.78;5050899;28;20170;-77
2021/12/01 04:15:44;;;;;;;6.13;4.32;;;;;;;11.30;77.51;99325.56;5046315;28;20578;-76
2021/12/01 04:18:10;;;;;;;6.25;4.35;;;;;;;11.46;76.99;99339.25;5047254;28;20079;-77
2021/12/01 04:20:35;;;;;;;6.97;4.63;;;;;;;11.47;76.96;99321.81;5049256;28;20036;-77
2021/12/01 04:23:01;;;;;;;7.28;4.57;;;;;;;11.49;77.04;99328.75;5049191;28;20035;-77
2021/12/01 04:25:26;;;;;;;6.95;4.40;;;;;;;11.51;77.00;99329.59;5050093;28;20882;-78
2021/12/01 04:27:52;;;;;;;6.00;4.70;;;;;;;11.33;77.29;99312.47;5031477;28;20039;-78
2021/12/01 04:30:22;;;;;;;7.55;4.47;;;;;;;11.45;77.02;99301.00;5025146;28;20051;-77
2021/12/01 04:32:47;;;;;;;7.80;5.18;;;;;;;11.43;77.22;99305.38;5050936;28;20044;-78
2021/12/01 04:35:15;;;;;;;7.63;4.65;;;;;;;11.27;77.61;99306.47;5043668;28;20051;-80
2021/12/01 04:37:41;;;;;;;7.18;4.55;;;;;;;11.36;77.62;99277.63;5050149;28;20064;-78
2021/12/01 04:40:07;;;;;;;8.65;4.63;;;;;;;11.38;76.91;99291.53;5040934;28;22320;-78
2021/12/01 04:42:33;;;;;;;7.57;4.50;;;;;;;11.45;76.87;99285.34;5047650;28;20032;-77
2021/12/01 04:44:59;;;;;;;6.00;4.70;;;;;;;11.46;77.02;99260.09;5029776;28;20044;-77
2021/12/01 04:47:29;;;;;;;6.72;4.90;;;;;;;11.32;77.58;99289.00;5043885;28;20719;-79
2021/12/01 04:49:56;;;;;;;8.02;4.90;;;;;;;11.33;77.04;99281.16;5034949;28;20148;-78
2021/12/01 04:52:21;;;;;;;7.95;5.10;;;;;;;11.43;76.97;99262.75;5052079;28;20047;-79
2021/12/01 04:54:46;;;;;;;8.60;5.40;;;;;;;11.46;76.88;99268.81;5048847;28;20149;-76
2021/12/01 04:57:12;;;;;;;7.55;5.60;;;;;;;11.50;76.59;99275.69;5051456;28;20077;-79
2021/12/01 04:59:37;;;;;;;6.50;5.72;;;;;;;11.50;76.28;99270.47;5054706;28;20162;-78
2021/12/01 05:02:03;;;;;;;7.85;5.35;;;;;;;11.50;76.30;99262.63;5036697;28;20328;-76
2021/12/01 05:04:28;;;;;;;7.20;5.28;;;;;;;11.43;76.73;99237.53;5054670;28;20491;-79
2021/12/01 05:06:54;;;;;;;7.30;5.28;;;;;;;11.39;77.04;99231.50;5048522;28;20564;-77
2021/12/01 05:09:19;;;;;;;5.85;5.00;;;;;;;11.39;76.74;99218.47;5035822;28;20056;-77
2021/12/01 05:11:44;;;;;;;9.18;5.40;;;;;;;11.46;76.84;99236.63;5038838;28;20063;-77
2021/12/01 05:14:11;;;;;;;6.55;4.63;;;;;;;11.38;76.94;99223.69;5049922;28;20098;-78
2021/12/01 05:16:39;;;;;;;5.97;4.60;;;;;;;11.48;76.89;99234.81;5041939;28;20036;-78
2021/12/01 05:19:08;;;;;;;7.05;4.20;;;;;;;11.45;76.96;99222.72;5047683;28;20149;-77
2021/12/01 05:21:34;;;;;;;5.72;4.30;;;;;;;11.39;77.14;99208.03;5048351;28;20051;-77
2021/12/01 05:24:00;;;;;;;6.55;3.45;;;;;;;11.45;76.78;99214.88;5032629;28;20048;-75
2021/12/01 05:26:25;;;;;;;6.53;3.30;;;;;;;11.32;77.27;99208.13;5042258;28;20040;-76
2021/12/01 05:28:51;;;;;;;4.70;2.80;;;;;;;11.46;77.11;99202.69;5053247;28;20059;-77
2021/12/01 05:31:16;;;;;;;4.80;2.50;;;;;;;11.47;76.99;99220.06;5052283;28;20528;-79
2021/12/01 05:33:43;;;;;;;3.47;2.40;;;;;;;11.45;77.12;99211.41;5049005;28;20050;-76
2021/12/01 05:36:10;;;;;;;3.90;2.40;;;;;;;11.59;76.76;99205.06;5024328;28;20106;-77
2021/12/01 05:38:35;;;;;;;5.32;2.20;;;;;;;11.51;76.74;99209.56;5038049;28;20871;-77
2021/12/01 05:41:02;;;;;;;3.60;1.95;;;;;;;11.53;76.94;99191.25;5048611;28;20044;-77
2021/12/01 05:43:29;;;;;;;4.93;1.90;;;;;;;11.54;76.75;99185.13;5049374;28;20123;-76
2021/12/01 05:45:54;;;;;;;2.67;1.70;;;;;;;11.55;76.82;99208.59;5032641;28;20499;-77
2021/12/01 05:48:19;;;;;;;3.25;1.70;;;;;;;11.51;77.04;99198.25;5036746;28;20600;-77
2021/12/01 05:50:45;;;;;;;3.40;1.73;;;;;;;11.58;76.61;99185.09;5052520;28;20599;-77
2021/12/01 05:53:10;;;;;;;2.95;1.70;;;;;;;11.68;76.30;99191.84;5048745;28;20048;-77
2021/12/01 05:55:37;;;;;;;4.68;1.77;;;;;;;11.66;76.32;99183.19;5030617;28;20127;-76
2021/12/01 05:58:03;;;;;;;3.58;1.80;;;;;;;11.58;76.47;99177.25;5047816;28;20388;-77
2021/12/01 06:00:28;;;;;;;3.88;1.98;;;;;;;11.63;76.63;99157.16;5045078;28;20059;-76
2021/12/01 06:02:54;;;;;;;5.32;2.13;;;;;;;11.66;76.40;99164.03;5055736;28;21045;-75
2021/12/01 06:05:20;;;;;;;3.72;2.17;;;;;;;11.58;76.67;99164.19;5043687;28;20040;-77
2021/12/01 06:07:47;;;;;;;5.03;2.22;;;;;;;11.54;76.99;99151.22;5054688;28;20404;-77
2021/12/01 06:10:13;;;;;;;3.92;2.50;;;;;;;11.55;77.19;99151.19;5030888;28;20054;-76
2021/12/01 06:12:42;;;;;;;8.60;2.80;;;;;;;11.51;76.91;99152.16;5053198;28;20036;-76
2021/12/01 06:15:08;;;;;;;5.75;2.70;;;;;;;11.55;76.75;99145.09;5052457;28;20170;-78
2021/12/01 06:17:34;;;;;;;7.43;2.90;;;;;;;11.62;76.55;99150.19;5044812;28;20176;-77
2021/12/01 06:20:00;;;;;;;6.65;2.88;;;;;;;11.61;77.04;99151.09;5045006;28;20060;-77
2021/12/01 06:22:25;;;;;;;6.47;2.70;;;;;;;11.54;76.82;99138.16;5029174;28;20044;-77
2021/12/01 06:24:51;;;;;;;5.60;2.83;;;;;;;11.58;76.92;99152.91;5056856;28;20040;-78
2021/12/01 06:27:16;;;;;;;5.63;2.60;;;;;;;11.58;76.95;99135.50;5042819;28;20097;-77
2021/12/01 06:29:43;;;;;;;7.15;2.95;;;;;;;11.64;76.86;99151.03;5057247;28;20403;-78
2021/12/01 06:32:08;;;;;;;5.47;2.58;;;;;;;11.59;77.18;99141.53;5046596;28;20432;-77
2021/12/01 06:34:33;;;;;;;4.82;2.40;;;;;;;11.70;76.67;99142.22;5051473;28;20125;-77
2021/12/01 06:36:59;;;;;;;5.47;2.40;;;;;;;11.66;76.92;99140.56;5061867;28;20040;-78
2021/12/01 06:39:24;;;;;;;5.53;2.45;;;;;;;11.69;76.58;99136.16;5047971;28;20372;-77
2021/12/01 06:41:50;;;;;;;6.95;2.30;;;;;;;11.62;76.67;99111.03;5047254;28;20039;-76
2021/12/01 06:44:16;;;;;;;8.23;2.22;;;;;;;11.50;77.12;99121.72;5047171;28;20677;-78
2021/12/01 06:46:41;;;;;;;7.45;2.28;;;;;;;11.63;76.86;99112.78;5030784;28;20620;-77
2021/12/01 06:49:06;;;;;;;6.05;2.10;;;;;;;11.60;76.84;99110.19;5035696;28;20577;-77
2021/12/01 06:51:32;;;;;;;7.07;2.17;;;;;;;11.55;76.80;99101.59;5055007;28;20075;-77
2021/12/01 06:53:57;;;;;;;7.15;2.10;;;;;;;11.65;76.59;99097.91;5043411;28;20486;-78
2021/12/01 06:56:23;;;;;;;8.00;2.38;;;;;;;11.62;76.62;99099.75;5050022;28;20040;-77
2021/12/01 06:58:49;;;;;;;7.75;2.10;;;;;;;11.61;76.72;99090.19;5055048;28;20046;-78
2021/12/01 07:01:14;;;;;;;6.10;2.22;;;;;;;11.65;76.49;99097.06;5031389;28;20431;-76
2021/12/01 07:03:40;;;;;;;6.18;2.35;;;;;;;11.56;76.62;99092.91;5033669;28;20773;-77
2021/12/01 07:06:06;;;;;;;7.55;2.30;;;;;;;11.51;76.76;99092.13;5039040;28;20067;-76
2021/12/01 07:08:32;;;;;;;5.78;2.35;;;;;;;11.65;76.62;99084.88;5054656;28;20748;-77
2021/12/01 07:10:57;;;;;;;9.65;2.60;;;;;;;11.69;76.32;99088.31;5057194;28;20071;-78
2021/12/01 07:13:23;;;;;;;7.95;2.60;;;;;;;11.70;76.38;99076.97;5051723;28;20098;-80
2021/12/01 07:15:48;;;;;;;9.82;2.80;;;;;;;11.53;76.78;99073.81;5045941;28;20040;-73
2021/12/01 07:18:13;;;;;;;8.82;2.50;;;;;;;11.65;76.90;99064.00;5033678;28;20174;-77
2021/12/01 07:20:39;;;;;;;13.18;2.85;;;;;;;11.74;76.43;99070.81;5051978;28;20082;-77
2021/12/01 07:23:04;;;;;;;8.10;2.58;;;;;;;11.76;76.52;99069.91;5032721;28;20840;-76
2021/12/01 07:25:30;;;;;;;13.00;2.78;;;;;;;11.81;76.12;99074.19;5033741;28;20048;-77
2021/12/01 07:27:56;;;;;;;11.63;2.75;;;;;;;11.78;76.44;99083.78;5045732;28;20384;-77
2021/12/01 07:30:21;;;;;;;11.05;2.50;;;;;;;11.67;76.74;99095.28;5053505;28;20061;-78
2021/12/01 07:32:49;;;;;;;12.57;2.53;;;;;;;11.73;76.41;99084.72;5051488;28;20055;-77
2021/12/01 07:35:14;;;;;;;17.30;2.60;;;;;;;11.76;76.09;99090.81;5048115;28;20788;-75
2021/12/01 07:37:40;;;;;;;9.35;2.20;;;;;;;11.76;76.04;99071.66;5047370;28;20738;-77
2021/12/01 07:40:05;;;;;;;16.15;2.67;;;;;;;11.77;76.36;99087.28;5043764;28;20430;-78
2021/12/01 07:42:31;;;;;;;9.23;2.67;;;;;;;11.82;75.90;99109.84;5048769;28;20032;-78
2021/12/01 07:44:56;;;;;;;11.05;2.28;;;;;;;11.69;74.94;99103.97;5036595;28;20174;-76
2021/12/01 07:47:21;;;;;;;11.57;2.28;;;;;;;11.54;72.62;99112.06;5039409;28;20118;-77
2021/12/01 07:49:47;;;;;;;14.27;2.10;;;;;;;11.52;71.72;99091.25;5040259;28;20123;-78
2021/12/01 07:52:12;;;;;;;11.48;2.13;;;;;;;11.54;71.28;99099.88;5051352;28;20048;-77
2021/12/01 07:54:39;;;;;;;9.45;1.80;;;;;;;11.39;71.43;99114.09;5053517;28;20051;-77
2021/12/01 07:57:05;;;;;;;10.15;1.50;;;;;;;11.37;70.72;99096.72;5052637;28;20539;-78
2021/12/01 07:59:30;;;;;;;9.75;1.63;;;;;;;11.27;69.63;99108.22;5047064;28;20051;-77
2021/12/01 08:01:56;;;;;;;11.20;1.75;;;;;;;11.35;68.35;99104.56;5047815;28;20032;-78
2021/12/01 08:04:21;;;;;;;7.53;1.30;;;;;;;11.39;68.81;99100.19;5052389;28;20107;-77
2021/12/01 08:06:46;;;;;;;10.15;1.30;;;;;;;11.35;68.70;99096.75;5051958;28;20043;-77
2021/12/01 08:09:12;;;;;;;5.57;1.20;;;;;;;11.47;69.10;99105.22;5058604;28;20090;-76
2021/12/01 08:11:39;;;;;;;9.00;1.42;;;;;;;11.43;69.19;99125.31;5041872;28;20044;-79
2021/12/01 08:14:08;;;;;;;11.05;1.60;;;;;;;11.39;70.54;99140.19;5022721;28;20051;-77
2021/12/01 08:16:37;;;;;;;6.57;1.55;;;;;;;11.24;71.16;99137.81;5032459;28;20036;-78
2021/12/01 08:19:03;;;;;;;11.40;1.40;;;;;;;11.32;71.26;99146.38;5043927;28;20074;-79
2021/12/01 08:21:28;;;;;;;8.05;1.17;;;;;;;11.10;71.97;99139.78;5048264;28;20036;-77
2021/12/01 08:23:54;;;;;;;13.63;1.50;;;;;;;11.13;71.94;99141.50;5045489;28;20497;-76
2021/12/01 08:26:20;;;;;;;8.95;1.10;;;;;;;11.17;71.77;99135.34;5057967;28;20031;-79
2021/12/01 08:28:46;;;;;;;7.05;1.60;;;;;;;11.20;71.58;99136.16;5050433;28;20040;-80
2021/12/01 08:31:16;;;;;;;9.13;1.30;;;;;;;11.28;71.33;99141.25;5054401;28;20074;-77
2021/12/01 08:33:43;;;;;;;10.30;1.20;;;;;;;11.40;71.19;99130.59;5038315;28;20165;-79
2021/12/01 08:36:10;;;;;;;9.95;1.45;;;;;;;11.33;70.89;99116.81;5029644;28;20044;-78
2021/12/01 08:38:36;;;;;;;6.43;1.27;;;;;;;11.42;70.54;99131.41;5048788;28;20505;-79
2021/12/01 08:41:01;;;;;;;9.80;1.45;;;;;;;11.36;70.46;99127.16;5049834;28;20251;-80
2021/12/01 08:43:26;;;;;;;6.43;1.10;;;;;;;11.45;69.78;99134.00;5043816;28;20212;-79
2021/12/01 08:45:52;;;;;;;11.85;1.48;;;;;;;11.45;70.05;99135.75;5042977;28;20408;-77
2021/12/01 08:48:17;;;;;;;9.07;1.55;;;;;;;11.50;70.04;99150.41;5047392;28;20105;-77
2021/12/01 08:50:42;;;;;;;7.07;1.27;;;;;;;11.52;70.33;99168.66;5037142;28;20040;-77
2021/12/01 08:53:09;;;;;;;6.28;1.20;;;;;;;11.40;70.75;99165.34;5049770;28;20048;-80
2021/12/01 08:55:34;;;;;;;6.93;1.27;;;;;;;11.35;70.82;99158.50;5006347;28;20109;-77
2021/12/01 08:58:02;;;;;;;9.35;1.20;;;;;;;11.27;71.40;99168.22;4998958;28;20485;-80
2021/12/01 09:00:28;;;;;;;11.55;1.20;;;;;;;11.18;72.21;99170.97;5052307;28;20059;-79
2021/12/01 09:02:53;;;;;;;10.13;1.38;;;;;;;11.12;72.38;99171.06;5042527;28;20528;-80
2021/12/01 09:05:18;;;;;;;7.88;1.00;;;;;;;11.04;72.81;99168.56;5039732;28;20032;-77
2021/12/01 09:07:44;;;;;;;8.57;1.58;;;;;;;11.16;72.41;99181.41;5036023;28;20044;-78
2021/12/01 09:10:09;;;;;;;10.65;1.27;;;;;;;11.31;72.10;99177.72;5049804;28;20056;-78
2021/12/01 09:12:35;;;;;;;8.60;1.35;;;;;;;11.37;71.74;99182.81;5034156;28;20032;-79
2021/12/01 09:15:01;;;;;;;6.75;1.23;;;;;;;11.34;71.47;99198.53;5050821;28;20528;-77
2021/12/01 09:17:26;;;;;;;5.47;1.20;;;;;;;11.21;71.82;99215.28;5040749;28;20373;-78
2021/12/01 09:19:52;;;;;;;5.22;1.10;;;;;;;11.13;72.13;99204.09;5055966;28;20051;-79
2021/12/01 09:22:19;;;;;;;8.63;1.60;;;;;;;10.82;72.63;99196.72;5049282;28;20036;-77
2021/12/01 09:24:46;;;;;;;8.75;1.30;;;;;;;10.84;72.86;99201.94;5056529;28;20353;-78
2021/12/01 09:27:12;;;;;;;6.75;1.50;;;;;;;10.92;72.37;99208.72;5052541;28;20157;-78
2021/12/01 09:29:38;;;;;;;8.32;1.77;;;;;;;10.79;72.60;99207.22;5045393;28;20048;-78
2021/12/01 09:32:04;;;;;;;12.25;1.85;;;;;;;10.94;72.99;99208.72;5048145;28;20051;-76
2021/12/01 09:34:30;;;;;;;13.50;1.70;;;;;;;11.00;73.05;99206.03;5054268;28;20104;-78
2021/12/01 09:36:56;;;;;;;6.82;1.45;;;;;;;11.08;72.79;99214.59;5048645;28;20951;-77
2021/12/01 09:39:23;;;;;;;8.20;1.73;;;;;;;11.20;72.52;99203.97;5018740;28;20051;-79
2021/12/01 09:41:49;;;;;;;6.97;1.70;;;;;;;11.23;71.24;99210.88;5036747;28;20031;-77
2021/12/01 09:44:14;;;;;;;9.07;1.70;;;;;;;11.12;71.43;99221.47;5043362;28;20529;-80
2021/12/01 09:46:40;;;;;;;8.35;1.70;;;;;;;11.16;70.81;99220.53;5035472;28;20074;-79
2021/12/01 09:49:06;;;;;;;6.90;1.63;;;;;;;11.06;70.75;99221.56;5027139;28;20108;-78
2021/12/01 09:51:31;;;;;;;12.35;1.83;;;;;;;10.85;71.17;99241.00;5015709;28;21036;-78
2021/12/01 09:53:57;;;;;;;9.63;1.73;;;;;;;10.95;71.26;99220.88;5050467;28;20096;-76
2021/12/01 09:56:24;;;;;;;7.78;1.60;;;;;;;10.99;71.74;99232.97;5049029;28;20048;-79
2021/12/01 09:58:50;;;;;;;7.75;1.55;;;;;;;11.09;72.01;99236.31;5031152;28;20024;-79
2021/12/01 10:01:18;;;;;;;12.00;1.52;;;;;;;10.99;72.27;99226.00;5051786;28;20063;-76
2021/12/01 10:03:45;;;;;;;8.25;1.48;;;;;;;10.98;72.27;99229.50;5045857;28;20055;-77
2021/12/01 10:06:17;;;;;;;7.22;1.30;;;;;;;10.93;71.89;99222.63;5049869;28;20500;-77
2021/12/01 10:08:45;;;;;;;11.30;1.40;;;;;;;10.94;72.13;99230.44;5044207;28;20052;-77
2021/12/01 10:11:25;;;;;;;9.20;1.35;;;;;;;11.07;72.32;99227.66;5036753;28;20113;-79
2021/12/01 10:13:58;;;;;;;7.57;1.15;;;;;;;11.17;71.90;99226.63;5035239;28;20694;-78
2021/12/01 10:16:27;;;;;;;12.27;1.90;;;;;;;11.13;71.74;99230.16;5027495;28;20561;-77
2021/12/01 10:18:55;;;;;;;9.57;1.50;;;;;;;11.15;71.29;99223.19;5035911;28;20089;-77
2021/12/01 10:21:39;;;;;;;14.40;1.90;;;;;;;11.18;71.18;99223.13;5044431;28;20435;-79
2021/12/01 10:24:13;;;;;;;9.65;1.30;;;;;;;11.24;70.55;99210.00;5046246;27;20043;-79
2021/12/01 10:26:43;;;;;;;6.70;1.30;;;;;;;11.37;70.59;99214.13;5014753;28;20069;-78
2021/12/01 10:29:18;;;;;;;9.82;1.50;;;;;;;11.30;69.83;99213.38;5049089;28;20044;-79
2021/12/01 10:31:51;;;;;;;8.70;1.60;;;;;;;11.47;68.98;99209.63;5049124;28;20055;-82
2021/12/01 10:34:24;;;;;;;12.27;1.58;;;;;;;11.42;69.07;99209.69;5051971;28;20055;-78
2021/12/01 10:37:23;;;;;;;11.07;1.70;;;;;;;11.49;69.27;99208.72;5056157;28;20062;-77
2021/12/01 10:40:21;;;;;;;11.50;1.67;;;;;;;11.43;68.83;99208.81;5041908;28;20197;-79
2021/12/01 10:43:02;;;;;;;8.38;1.48;;;;;;;11.49;68.86;99203.50;5055499;28;20113;-78
2021/12/01 10:45:49;;;;;;;9.75;1.42;;;;;;;11.58;68.67;99207.72;5044801;28;20063;-79
2021/12/01 10:48:26;;;;;;;8.32;1.38;;;;;;;11.43;68.52;99216.66;5057252;28;20115;-80
2021/12/01 10:50:52;;;;;;;8.98;1.23;;;;;;;11.60;68.01;99219.81;5047820;28;20052;-78
2021/12/01 10:53:23;;;;;;;8.23;1.70;;;;;;;11.59;68.16;99217.22;5034929;28;20086;-76
2021/12/01 10:55:54;;;;;;;13.50;1.65;;;;;;;11.57;68.39;99206.84;5052670;28;20043;-78
2021/12/01 10:58:20;;;;;;;8.73;1.60;;;;;;;11.63;68.25;99211.09;5037881;28;20036;-78
2021/12/01 11:00:48;;;;;;;14.45;1.40;;;;;;;11.58;67.51;99216.41;5051950;28;20058;-79
2021/12/01 11:03:24;;;;;;;9.30;1.40;;;;;;;11.57;66.91;99211.19;5045778;28;20036;-80
2021/12/01 11:05:52;;;;;;;6.88;1.17;;;;;;;11.58;66.64;99215.53;5044924;28;20565;-78
2021/12/01 11:08:29;;;;;;;8.55;1.60;;;;;;;11.52;65.48;99206.06;5031124;28;20050;-80
2021/12/01 11:11:07;;;;;;;8.82;1.42;;;;;;;11.51;66.37;99213.91;5034215;28;20054;-79
2021/12/01 11:13:33;;;;;;;10.10;1.75;;;;;;;11.52;66.74;99216.50;5040581;28;20274;-77
2021/12/01 11:16:00;;;;;;;9.18;1.63;;;;;;;11.69;66.37;99211.84;5050706;28;20137;-79
2021/12/01 11:18:31;;;;;;;9.40;1.20;;;;;;;11.55;65.78;99205.13;5044376;28;20040;-78
2021/12/01 11:21:24;;;;;;;9.50;1.67;;;;;;;11.62;66.15;99211.97;5035263;28;20097;-79
2021/12/01 11:23:57;;;;;;;8.85;1.40;;;;;;;11.67;65.94;99215.38;5055227;28;20144;-77
2021/12/01 11:26:30;;;;;;;10.30;1.90;;;;;;;11.71;65.84;99222.28;5035603;28;20036;-77
2021/12/01 11:29:12;;;;;;;6.80;1.50;;;;;;;11.62;65.43;99212.84;5042874;28;20300;-77
2021/12/01 11:31:42;;;;;;;9.32;1.67;;;;;;;11.48;66.38;99204.38;5047025;28;20040;-78
2021/12/01 11:34:15;;;;;;;9.05;1.73;;;;;;;11.62;65.29;99211.97;5054620;28;20099;-77
2021/12/01 11:36:50;;;;;;;9.82;1.52;;;;;;;11.68;64.94;99215.34;5057246;28;20052;-78